createdAt,value
2023-04-21T00:00:10.036Z,100157.53
2023-04-21T00:05:24.657Z,100156.63
2023-04-21T00:08:04.064Z,100143.59
2023-04-21T00:10:48.294Z,100098.16
2023-04-21T00:13:17.891Z,100147.09
2023-04-21T00:15:47.085Z,100133.50
2023-04-21T00:18:17.058Z,100137.88
2023-04-21T00:20:48.585Z,100107.19
2023-04-21T00:23:15.131Z,100145.91
2023-04-21T00:25:46.573Z,100145.97
2023-04-21T00:28:16.389Z,100150.31
2023-04-21T00:30:45.218Z,100136.16
2023-04-21T00:36:05.596Z,100119.53
2023-04-21T00:38:41.338Z,100123.66
2023-04-21T00:41:12.870Z,100132.13
2023-04-21T00:44:02.990Z,100090.00
2023-04-21T00:49:14.897Z,100128.34
2023-04-21T00:51:50.446Z,100121.63
2023-04-21T00:54:18.825Z,100124.09
2023-04-21T00:56:46.127Z,100124.88
2023-04-21T00:59:24.821Z,100134.59
2023-04-21T01:01:57.258Z,100107.00
2023-04-21T01:04:25.188Z,100123.31
2023-04-21T01:06:54.026Z,100103.56
2023-04-21T01:09:23.513Z,100097.44
2023-04-21T01:12:12.335Z,100084.69
2023-04-21T01:14:46.556Z,100110.59
2023-04-21T01:17:15.690Z,100114.28
2023-04-21T01:19:45.459Z,100113.28
2023-04-21T01:22:15.692Z,100113.22
2023-04-21T01:24:44.796Z,100094.25
2023-04-21T01:27:16.705Z,100112.34
2023-04-21T01:29:49.384Z,100121.22
2023-04-21T01:32:20.098Z,100115.13
2023-04-21T01:34:47.610Z,100089.28
2023-04-21T01:37:27.492Z,100112.66
2023-04-21T01:39:58.806Z,100104.88
2023-04-21T01:42:35.345Z,100114.34
2023-04-21T01:45:02.930Z,100115.13
2023-04-21T01:47:41.656Z,100113.41
2023-04-21T01:50:16.356Z,100115.25
2023-04-21T01:52:43.677Z,100116.09
2023-04-21T01:55:16.184Z,100106.44
2023-04-21T01:57:43.336Z,100108.34
2023-04-21T02:00:17.420Z,100111.75
2023-04-21T02:02:45.800Z,100090.34
2023-04-21T02:05:15.228Z,100111.84
2023-04-21T02:07:46.235Z,100081.81
2023-04-21T02:10:13.523Z,100101.59
2023-04-21T02:12:45.746Z,100129.47
2023-04-21T02:15:12.730Z,100099.13
2023-04-21T02:17:45.572Z,100062.31
2023-04-21T02:20:13.600Z,100112.84
2023-04-21T02:22:41.985Z,100116.38
2023-04-21T02:25:08.971Z,100118.09
2023-04-21T02:27:36.720Z,100125.00
2023-04-21T02:32:50.614Z,100125.84
2023-04-21T02:35:20.389Z,100122.31
2023-04-21T02:37:48.391Z,100122.22
2023-04-21T02:40:15.713Z,100111.13
2023-04-21T02:42:42.341Z,100123.91
2023-04-21T02:45:13.111Z,100128.19
2023-04-21T02:47:42.149Z,100120.34
2023-04-21T02:50:11.313Z,100119.69
2023-04-21T02:52:38.729Z,100119.81
2023-04-21T02:55:08.131Z,100124.03
2023-04-21T03:00:34.000Z,100100.66
2023-04-21T03:03:05.482Z,100123.09
2023-04-21T03:05:41.704Z,100111.06
2023-04-21T03:08:08.898Z,100121.31
2023-04-21T03:10:41.750Z,100117.06
2023-04-21T03:13:08.544Z,100093.25
2023-04-21T03:15:36.964Z,100131.97
2023-04-21T03:18:04.603Z,100132.03
2023-04-21T03:20:35.563Z,100124.22
2023-04-21T03:23:03.755Z,100122.66
2023-04-21T03:25:30.715Z,100121.69
2023-04-21T03:27:57.401Z,100126.72
2023-04-21T03:30:28.016Z,100137.00
2023-04-21T03:33:02.798Z,100144.78
2023-04-21T03:35:34.666Z,100128.25
2023-04-21T03:38:03.872Z,100135.13
2023-04-21T03:40:31.903Z,100138.63
2023-04-21T03:42:59.073Z,100118.78
2023-04-21T03:45:26.510Z,100131.72
2023-04-21T03:48:07.427Z,100131.72
2023-04-21T03:50:38.630Z,100127.47
2023-04-21T03:53:07.394Z,100130.34
2023-04-21T03:55:34.527Z,100119.06
2023-04-21T03:58:01.249Z,100122.50
2023-04-21T04:00:29.280Z,100126.03
2023-04-21T04:02:59.533Z,100116.34
2023-04-21T04:05:29.613Z,100109.31
2023-04-21T04:08:04.623Z,100121.66
2023-04-21T04:10:43.607Z,100126.03
2023-04-21T04:13:10.360Z,100122.66
2023-04-21T04:15:40.619Z,100121.75
2023-04-21T04:18:07.384Z,100128.50
2023-04-21T04:20:35.030Z,100131.94
2023-04-21T04:23:03.163Z,100120.78
2023-04-21T04:25:31.541Z,100125.00
2023-04-21T04:28:00.035Z,100128.53
2023-04-21T04:30:32.283Z,100121.34
2023-04-21T04:33:04.283Z,100109.31
2023-04-21T04:35:44.595Z,100124.84
2023-04-21T04:38:15.505Z,100100.84
2023-04-21T04:41:03.364Z,100098.06
2023-04-21T04:43:32.743Z,100107.41
2023-04-21T04:48:50.531Z,100118.69
2023-04-21T04:51:18.845Z,100103.09
2023-04-21T04:53:50.746Z,100099.69
2023-04-21T04:56:23.757Z,100105.69
2023-04-21T04:58:53.133Z,100087.75
2023-04-21T05:01:23.414Z,100103.97
2023-04-21T05:03:55.119Z,100111.69
2023-04-21T05:06:23.418Z,100108.34
2023-04-21T05:08:52.015Z,100120.50
2023-04-21T05:11:20.484Z,100123.94
2023-04-21T05:13:50.721Z,100117.72
2023-04-21T05:19:04.432Z,100122.84
2023-04-21T05:21:37.394Z,100122.78
2023-04-21T05:24:04.413Z,100114.19
2023-04-21T05:27:05.368Z,100089.09
2023-04-21T05:29:34.423Z,100116.28
2023-04-21T05:32:03.386Z,100107.47
2023-04-21T05:34:31.005Z,100104.69
2023-04-21T05:37:00.173Z,100073.56
2023-04-21T05:39:30.395Z,100121.19
2023-04-21T05:42:03.129Z,100124.63
2023-04-21T05:44:31.426Z,100069.41
2023-04-21T05:52:49.043Z,100119.81
2023-04-21T05:55:19.857Z,100107.59
2023-04-21T05:57:47.567Z,100126.53
2023-04-21T06:00:17.863Z,100103.00
2023-04-21T06:02:46.424Z,100122.59
2023-04-21T06:05:14.253Z,100106.19
2023-04-21T06:07:41.367Z,100129.88
2023-04-21T06:12:52.376Z,100122.19
2023-04-21T06:15:25.537Z,100115.94
2023-04-21T06:17:59.233Z,100119.13
2023-04-21T06:20:34.462Z,100119.63
2023-04-21T06:23:01.342Z,100087.66
2023-04-21T06:25:28.627Z,100115.03
2023-04-21T06:28:00.134Z,100114.66
2023-04-21T06:30:26.802Z,100102.09
2023-04-21T06:33:01.246Z,100112.84
2023-04-21T06:35:29.253Z,100116.00
2023-04-21T06:40:38.100Z,100123.22
2023-04-21T06:43:06.686Z,100122.03
2023-04-21T06:45:38.006Z,100123.69
2023-04-21T06:48:07.537Z,100128.13
2023-04-21T06:50:34.211Z,100128.78
2023-04-21T06:53:03.954Z,100124.31
2023-04-21T06:55:38.765Z,100123.84
2023-04-21T07:09:01.989Z,100121.63
2023-04-21T07:11:31.862Z,100119.47
2023-04-21T07:14:05.444Z,100125.41
2023-04-21T07:16:37.509Z,100122.50
2023-04-21T07:19:04.711Z,100108.88
2023-04-21T07:21:37.306Z,100098.44
2023-04-21T07:24:07.947Z,100105.88
2023-04-21T07:26:45.422Z,100111.66
2023-04-21T07:29:12.909Z,100114.75
2023-04-21T07:31:43.536Z,100124.47
2023-04-21T07:34:11.098Z,100120.69
2023-04-21T07:36:46.904Z,100127.22
2023-04-21T07:39:13.659Z,100124.50
2023-04-21T07:41:45.012Z,100122.44
2023-04-21T07:44:11.617Z,100124.41
2023-04-21T07:46:39.497Z,100130.53
2023-04-21T07:49:10.325Z,100128.66
2023-04-21T07:51:37.376Z,100127.97
2023-04-21T07:54:06.486Z,100125.53
2023-04-21T07:56:36.191Z,100115.31
2023-04-21T07:59:04.098Z,100120.72
2023-04-21T08:01:32.846Z,100115.56
2023-04-21T08:03:59.696Z,100121.81
2023-04-21T08:06:30.202Z,100107.56
2023-04-21T08:08:56.970Z,100108.25
2023-04-21T08:11:24.052Z,100083.03
2023-04-21T08:14:00.441Z,100090.41
2023-04-21T08:16:28.689Z,100100.38
2023-04-21T08:19:08.031Z,100103.56
2023-04-21T08:24:17.180Z,100107.00
2023-04-21T08:26:47.485Z,100085.53
2023-04-21T08:29:15.444Z,100087.75
2023-04-21T08:31:44.577Z,100122.25
2023-04-21T08:34:11.877Z,100111.81
2023-04-21T08:36:41.118Z,100104.63
2023-04-21T08:39:12.066Z,100114.69
2023-04-21T08:41:47.355Z,100113.97
2023-04-21T08:47:04.468Z,100091.19
2023-04-21T08:49:42.675Z,100102.91
2023-04-21T08:52:20.777Z,100093.25
2023-04-21T08:54:52.144Z,100034.31
2023-04-21T08:57:22.447Z,100095.50
2023-04-21T08:59:49.521Z,100101.91
2023-04-21T09:02:18.879Z,100058.38
2023-04-21T09:07:49.509Z,100094.97
2023-04-21T09:10:24.389Z,100100.19
2023-04-21T09:13:00.688Z,100102.22
2023-04-21T09:15:29.298Z,100104.72
2023-04-21T09:17:57.378Z,100091.63
2023-04-21T09:20:28.216Z,100091.81
2023-04-21T09:25:40.507Z,100103.69
2023-04-21T09:28:14.889Z,100107.13
2023-04-21T09:30:44.994Z,100100.94
2023-04-21T09:33:28.942Z,100096.25
2023-04-21T09:36:03.101Z,100096.84
2023-04-21T09:38:30.131Z,100110.28
2023-04-21T09:41:01.464Z,100110.91
2023-04-21T09:43:28.337Z,100107.13
2023-04-21T09:45:56.560Z,100065.09
2023-04-21T09:48:27.356Z,100064.44
2023-04-21T09:53:43.081Z,100083.50
2023-04-21T09:56:17.493Z,100106.50
2023-04-21T09:58:56.887Z,100110.97
2023-04-21T10:01:30.922Z,100103.69
2023-04-21T10:03:58.651Z,100099.13
2023-04-21T10:06:30.998Z,100107.69
2023-04-21T10:09:09.434Z,100107.84
2023-04-21T10:11:38.908Z,100095.81
2023-04-21T10:14:12.322Z,100095.31
2023-04-21T10:16:39.926Z,100057.19
2023-04-21T10:19:26.323Z,100084.50
2023-04-21T10:22:05.675Z,100079.66
2023-04-21T10:24:43.290Z,100023.97
2023-04-21T10:27:15.865Z,100077.06
2023-04-21T10:29:56.743Z,100063.34
2023-04-21T10:32:45.818Z,100070.97
2023-04-21T10:35:23.416Z,99967.50
2023-04-21T10:37:55.029Z,100035.06
2023-04-21T10:40:43.020Z,100068.25
2023-04-21T10:43:49.179Z,100060.84
2023-04-21T10:46:39.665Z,100061.78
2023-04-21T10:49:23.380Z,100061.50
2023-04-21T10:52:09.027Z,100055.50
2023-04-21T10:54:41.772Z,100063.19
2023-04-21T10:57:14.380Z,100007.81
2023-04-21T10:59:42.639Z,100050.75
2023-04-21T11:02:15.266Z,100048.75
2023-04-21T11:04:51.360Z,100059.72
2023-04-21T11:07:28.056Z,100015.47
2023-04-21T11:12:43.797Z,100005.56
2023-04-21T11:15:19.932Z,100022.16
2023-04-21T11:17:47.885Z,100046.31
2023-04-21T11:20:16.118Z,99953.38
2023-04-21T11:22:45.850Z,99971.41
2023-04-21T11:25:20.601Z,100039.78
2023-04-21T11:27:59.864Z,99999.81
2023-04-21T11:30:44.515Z,100009.41
2023-04-21T11:33:18.829Z,99979.03
2023-04-21T11:35:46.039Z,100005.97
2023-04-21T11:38:15.033Z,100020.69
2023-04-21T11:40:51.269Z,100001.63
2023-04-21T11:43:21.161Z,100007.69
2023-04-21T11:45:51.828Z,99971.84
2023-04-21T11:48:27.635Z,100022.53
2023-04-21T11:50:55.658Z,100003.63
2023-04-21T11:53:26.034Z,100017.81
2023-04-21T11:55:54.031Z,99971.00
2023-04-21T11:58:24.377Z,99933.72
2023-04-21T12:00:54.135Z,100009.91
2023-04-21T12:03:21.388Z,100000.63
2023-04-21T12:05:56.948Z,99950.34
2023-04-21T12:08:26.866Z,99960.03
2023-04-21T12:10:57.092Z,99973.16
2023-04-21T12:13:24.435Z,99978.31
2023-04-21T12:15:58.590Z,99993.63
2023-04-21T12:18:36.756Z,99966.22
2023-04-21T12:21:09.099Z,99990.56
2023-04-21T12:23:40.782Z,99971.63
2023-04-21T12:26:14.578Z,99936.38
2023-04-21T12:28:44.960Z,99950.81
2023-04-21T12:31:25.536Z,99987.66
2023-04-21T12:33:52.128Z,99990.56
2023-04-21T12:36:25.432Z,99976.09
2023-04-21T12:39:04.085Z,99928.78
2023-04-21T12:41:33.678Z,99950.06
2023-04-21T12:44:06.984Z,99933.94
2023-04-21T12:46:37.652Z,99978.72
2023-04-21T12:49:11.757Z,99943.94
2023-04-21T12:51:42.738Z,99962.06
2023-04-21T12:54:18.804Z,99920.00
2023-04-21T12:56:47.179Z,99907.25
2023-04-21T12:59:21.676Z,99907.06
2023-04-21T13:01:56.365Z,99930.09
2023-04-21T13:04:26.927Z,99878.34
2023-04-21T13:06:55.074Z,99956.81
2023-04-21T13:09:30.264Z,99950.00
2023-04-21T13:12:00.224Z,99929.00
2023-04-21T13:14:34.419Z,99890.44
2023-04-21T13:22:44.726Z,99920.44
2023-04-21T13:28:56.646Z,99882.91
2023-04-21T13:31:27.817Z,99848.97
2023-04-21T13:33:56.115Z,99913.03
2023-04-21T13:36:23.857Z,99904.84
2023-04-21T13:39:03.896Z,99861.19
2023-04-21T13:41:31.293Z,99890.69
2023-04-21T13:44:03.390Z,99896.97
2023-04-21T13:46:33.370Z,99892.91
2023-04-21T13:49:02.487Z,99889.38
2023-04-21T13:51:32.422Z,99859.28
2023-04-21T13:54:00.855Z,99852.66
2023-04-21T13:56:28.946Z,99879.06
2023-04-21T14:01:41.925Z,99843.72
2023-04-21T14:04:09.280Z,99812.31
2023-04-21T14:06:36.104Z,99826.94
2023-04-21T14:09:04.786Z,99804.69
2023-04-21T14:11:32.634Z,99801.63
2023-04-21T14:14:09.620Z,99836.91
2023-04-21T14:16:37.316Z,99811.94
2023-04-21T14:19:09.231Z,99793.75
2023-04-21T14:21:36.211Z,99775.91
2023-04-21T14:24:05.479Z,99768.84
2023-04-21T14:26:39.576Z,99797.28
2023-04-21T14:29:09.049Z,99767.75
2023-04-21T14:31:39.976Z,99754.97
2023-04-21T14:34:06.829Z,99797.25
2023-04-21T14:36:35.433Z,99802.91
2023-04-21T14:39:15.270Z,99758.41
2023-04-21T14:41:46.682Z,99756.44
2023-04-21T14:44:15.007Z,99771.53
2023-04-21T14:47:01.454Z,99714.13
2023-04-21T14:49:37.486Z,99738.72
2023-04-21T14:52:07.629Z,99761.09
2023-04-21T14:54:34.389Z,99784.41
2023-04-21T14:57:19.763Z,99771.72
2023-04-21T14:59:57.704Z,99745.56
2023-04-21T15:02:32.461Z,99728.06
2023-04-21T15:05:14.124Z,99759.41
2023-04-21T15:07:43.302Z,99763.50
2023-04-21T15:10:12.496Z,99736.53
2023-04-21T15:12:45.938Z,99756.59
2023-04-21T15:15:13.123Z,99750.66
2023-04-21T15:17:49.652Z,99724.25
2023-04-21T15:23:05.243Z,99668.19
2023-04-21T15:25:32.044Z,99706.59
2023-04-21T15:28:03.009Z,99676.38
2023-04-21T15:33:16.687Z,99663.09
2023-04-21T15:35:43.846Z,99722.41
2023-04-21T15:38:13.819Z,99723.25
2023-04-21T15:43:28.713Z,99714.78
2023-04-21T15:46:04.040Z,99715.50
2023-04-21T15:48:32.262Z,99719.31
2023-04-21T15:51:03.049Z,99672.28
2023-04-21T15:53:35.894Z,99692.34
2023-04-21T15:56:10.710Z,99679.50
2023-04-21T15:58:40.082Z,99703.66
2023-04-21T16:01:08.410Z,99691.66
2023-04-21T16:03:37.408Z,99685.84
2023-04-21T16:08:45.607Z,99675.25
2023-04-21T16:11:17.068Z,99664.66
2023-04-21T16:13:47.738Z,99654.22
2023-04-21T16:16:26.288Z,99672.44
2023-04-21T16:19:01.999Z,99591.97
2023-04-21T16:21:43.082Z,99664.00
2023-04-21T16:24:17.937Z,99645.06
2023-04-21T16:26:49.166Z,99605.78
2023-04-21T16:32:01.855Z,99665.94
2023-04-21T16:34:32.245Z,99631.09
2023-04-21T16:37:02.810Z,99644.47
2023-04-21T16:42:15.120Z,99620.06
2023-04-21T16:44:46.972Z,99609.06
2023-04-21T16:47:17.345Z,99592.13
2023-04-21T16:49:53.904Z,99641.66
2023-04-21T16:55:12.389Z,99629.13
2023-04-21T16:57:39.381Z,99640.84
2023-04-21T17:00:12.638Z,99647.47
2023-04-21T17:02:42.419Z,99641.81
2023-04-21T17:05:09.903Z,99650.69
2023-04-21T17:07:39.770Z,99636.13
2023-04-21T17:10:09.867Z,99634.56
2023-04-21T17:12:39.500Z,99646.84
2023-04-21T17:15:07.752Z,99641.47
2023-04-21T17:17:46.207Z,99612.25
2023-04-21T17:22:56.374Z,99651.59
2023-04-21T17:25:31.772Z,99635.06
2023-04-21T17:28:04.017Z,99664.00
2023-04-21T17:30:33.197Z,99670.47
2023-04-21T17:33:15.978Z,99614.91
2023-04-21T17:38:43.289Z,99680.72
2023-04-21T17:41:21.749Z,99669.41
2023-04-21T17:47:18.297Z,99640.19
2023-04-21T17:49:47.163Z,99676.47
2023-04-21T17:52:16.964Z,99584.34
2023-04-21T17:54:56.518Z,99603.78
2023-04-21T18:00:37.414Z,99588.25
2023-04-21T18:03:12.319Z,99690.91
2023-04-21T18:05:45.508Z,99635.34
2023-04-21T18:13:56.092Z,99694.44
2023-04-21T18:19:20.107Z,99713.34
2023-04-21T18:22:41.303Z,99708.81
2023-04-21T18:25:40.880Z,99662.94
2023-04-21T18:37:10.658Z,99667.22
2023-04-21T18:46:06.080Z,99657.81
2023-04-21T18:51:33.185Z,99715.38
2023-04-21T18:54:06.413Z,99689.84
2023-04-21T19:00:04.400Z,99715.53
2023-04-21T19:02:40.277Z,99626.28
2023-04-21T19:05:15.892Z,99663.53
2023-04-21T19:13:17.361Z,99718.00
2023-04-21T19:19:07.787Z,99718.44
2023-04-21T19:27:55.735Z,99654.53
2023-04-21T19:39:24.328Z,99631.94
2023-04-21T19:41:59.128Z,99705.72
2023-04-21T19:44:39.594Z,99658.50
2023-04-21T19:49:52.925Z,99680.13
2023-04-21T20:01:11.954Z,99646.47
2023-04-21T20:03:48.496Z,99682.38
2023-04-21T20:06:19.326Z,99658.25
2023-04-21T20:08:47.049Z,99639.88
2023-04-21T20:11:26.188Z,99719.59
2023-04-21T20:14:00.119Z,99719.19
2023-04-21T20:19:48.332Z,99721.25
2023-04-21T20:22:34.162Z,99690.34
2023-04-21T20:25:07.849Z,99696.31
2023-04-21T20:27:43.955Z,99763.97
2023-04-21T20:30:34.848Z,99777.19
2023-04-21T20:38:51.810Z,99774.72
2023-04-21T20:41:27.313Z,99774.81
2023-04-21T20:44:07.998Z,99774.44
2023-04-21T20:49:29.971Z,99765.38
2023-04-21T21:09:06.217Z,99713.34
2023-04-21T21:12:32.704Z,99729.63
2023-04-21T21:15:07.237Z,99745.50
2023-04-21T21:17:51.008Z,99734.41
2023-04-21T21:20:21.050Z,99699.91
2023-04-21T21:22:59.836Z,99655.00
2023-04-21T21:28:25.107Z,99712.84
2023-04-21T21:30:55.005Z,99733.25
2023-04-21T21:38:56.512Z,99711.09
2023-04-21T21:41:40.570Z,99710.44
2023-04-21T21:44:16.298Z,99679.13
2023-04-21T21:46:55.109Z,99759.31
2023-04-21T21:52:16.737Z,99733.19
2023-04-21T21:57:48.633Z,99701.78
2023-04-21T22:00:33.090Z,99756.16
2023-04-21T22:05:50.237Z,99737.91
2023-04-21T22:14:47.558Z,99733.69
2023-04-21T22:17:48.414Z,99758.41
2023-04-21T22:29:51.714Z,99714.50
2023-04-21T22:32:23.318Z,99763.03
2023-04-21T22:35:02.413Z,99764.94
2023-04-21T22:37:37.956Z,99705.72
2023-04-21T22:40:21.658Z,99770.38
2023-04-21T22:42:51.968Z,99767.16
2023-04-21T22:45:23.484Z,99768.13
2023-04-21T22:47:55.420Z,99764.69
2023-04-21T22:50:23.809Z,99751.94
2023-04-21T22:52:56.039Z,99758.38
2023-04-21T22:55:26.971Z,99752.59
2023-04-21T23:00:46.983Z,99743.03
2023-04-21T23:03:14.522Z,99759.72
2023-04-21T23:05:46.226Z,99751.84
2023-04-21T23:08:18.834Z,99697.31
2023-04-21T23:10:53.012Z,99761.50
2023-04-21T23:13:24.287Z,99765.88
2023-04-21T23:16:03.203Z,99787.88
2023-04-21T23:21:14.144Z,99764.09
2023-04-21T23:23:46.826Z,99776.78
2023-04-21T23:26:17.620Z,99740.13
2023-04-21T23:28:46.357Z,99747.59
2023-04-21T23:31:17.602Z,99764.47
2023-04-21T23:33:54.435Z,99770.13
2023-04-21T23:36:37.160Z,99771.75
2023-04-21T23:39:07.712Z,99737.75
2023-04-21T23:41:51.546Z,99686.59
2023-04-21T23:44:22.547Z,99766.91
2023-04-21T23:46:53.015Z,99753.56
2023-04-21T23:49:31.713Z,99763.16
2023-04-21T23:54:40.553Z,99755.75
2023-04-21T23:57:13.465Z,99760.78
2023-04-21T23:59:45.498Z,99760.88
